Time;durP1;ratioP1;P1;durP2;ratioP2;P2;SDS_P1;SDS_P2;PMS_P1;PMS_P2;Temp;Humidity;BMP_temperature;BMP_pressure;BME280_temperature;BME280_humidity;BME280_pressure;Samples;Min_cycle;Max_cycle;Signal;HPM_P1;HPM_P2
2023/08/28 00:01:01;;;;;;;13.18;10.65;;;;;;;;;;5072471;28;20202;-77
2023/08/28 00:03:27;;;;;;;11.48;9.30;;;;;;;;;;5070322;28;20032;-78
2023/08/28 00:06:02;;;;;;;11.77;8.82;;;;;;;;;;5061948;28;20048;-76
2023/08/28 00:08:28;;;;;;;11.48;10.27;;;;;;;;;;5104122;28;20037;-76
2023/08/28 00:10:54;;;;;;;11.13;9.80;;;;;;;;;;5072520;28;20035;-76
2023/08/28 00:13:20;;;;;;;10.80;9.60;;;;;;;;;;5069778;28;20032;-76
2023/08/28 00:15:46;;;;;;;11.15;10.00;;;;;;;;;;5071003;28;20159;-77
2023/08/28 00:18:12;;;;;;;16.48;11.07;;;;;;;;;;5072349;28;20059;-79
2023/08/28 00:20:38;;;;;;;10.43;9.10;;;;;;;;;;5074354;28;20117;-79
2023/08/28 00:23:04;;;;;;;11.27;8.70;;;;;;;;;;5075087;28;20025;-79
2023/08/28 00:25:33;;;;;;;11.68;10.40;;;;;;;;;;5073665;28;20501;-78
2023/08/28 00:28:02;;;;;;;12.50;10.63;;;;;;;;;;5073886;28;20029;-78
2023/08/28 00:30:28;;;;;;;11.02;9.82;;;;;;;;;;5076399;28;20485;-76
2023/08/28 00:32:54;;;;;;;14.25;10.02;;;;;;;;;;5063820;28;20049;-76
2023/08/28 00:35:22;;;;;;;12.98;10.52;;;;;;;;;;5074361;28;20052;-77
2023/08/28 00:37:51;;;;;;;13.38;10.48;;;;;;;;;;5074724;28;20111;-78
2023/08/28 00:40:17;;;;;;;10.60;9.40;;;;;;;;;;5075408;28;20032;-79
2023/08/28 00:42:44;;;;;;;10.82;9.05;;;;;;;;;;5084732;28;20048;-77
2023/08/28 00:45:12;;;;;;;10.88;9.77;;;;;;;;;;5075581;28;20028;-77
2023/08/28 00:47:40;;;;;;;12.90;10.75;;;;;;;;;;5075567;28;20031;-76
2023/08/28 00:50:06;;;;;;;14.30;10.38;;;;;;;;;;5074970;28;20059;-77
2023/08/28 00:52:32;;;;;;;11.60;10.40;;;;;;;;;;5075393;28;20486;-77
2023/08/28 00:54:58;;;;;;;12.48;10.40;;;;;;;;;;5073161;28;20041;-77
2023/08/28 00:57:24;;;;;;;10.82;9.73;;;;;;;;;;5073975;28;20390;-76
2023/08/28 00:59:51;;;;;;;10.95;9.63;;;;;;;;;;5075042;28;20071;-75
2023/08/28 01:02:17;;;;;;;11.23;9.27;;;;;;;;;;5074407;28;20032;-75
2023/08/28 01:04:43;;;;;;;10.82;8.30;;;;;;;;;;5070237;28;20535;-74
2023/08/28 01:07:15;;;;;;;10.85;9.75;;;;;;;;;;5073483;28;20036;-74
2023/08/28 01:09:45;;;;;;;10.20;9.13;;;;;;;;;;5074975;28;20417;-74
2023/08/28 01:12:15;;;;;;;9.50;8.60;;;;;;;;;;5074576;28;20028;-73
2023/08/28 01:15:03;;;;;;;10.13;8.85;;;;;;;;;;5075045;28;20032;-73
2023/08/28 01:17:30;;;;;;;9.90;8.90;;;;;;;;;;5073639;28;20024;-72
2023/08/28 01:19:57;;;;;;;10.02;8.98;;;;;;;;;;5094372;28;20536;-72
2023/08/28 01:22:23;;;;;;;9.82;8.93;;;;;;;;;;5074611;28;20037;-71
2023/08/28 01:24:51;;;;;;;11.02;9.77;;;;;;;;;;5073732;28;20442;-71
2023/08/28 01:27:18;;;;;;;10.15;9.10;;;;;;;;;;5074449;28;20378;-71
2023/08/28 01:29:44;;;;;;;10.15;9.25;;;;;;;;;;5071994;28;20031;-73
2023/08/28 01:32:10;;;;;;;10.13;8.95;;;;;;;;;;5073118;28;20835;-72
2023/08/28 01:34:38;;;;;;;10.25;9.27;;;;;;;;;;5072815;28;20061;-72
2023/08/28 01:37:17;;;;;;;10.15;9.25;;;;;;;;;;5068252;28;20725;-71
2023/08/28 01:39:44;;;;;;;11.40;10.30;;;;;;;;;;5073582;28;20032;-72
2023/08/28 01:42:11;;;;;;;10.40;9.40;;;;;;;;;;5074564;28;20374;-71
2023/08/28 01:44:37;;;;;;;12.25;10.98;;;;;;;;;;5073969;28;20017;-71
2023/08/28 01:47:04;;;;;;;11.60;10.55;;;;;;;;;;5072747;28;20032;-71
2023/08/28 01:49:30;;;;;;;11.63;10.52;;;;;;;;;;5074406;28;20021;-71
2023/08/28 01:51:59;;;;;;;11.15;10.05;;;;;;;;;;5072560;28;20035;-71
2023/08/28 01:54:25;;;;;;;11.98;10.80;;;;;;;;;;5073101;28;20063;-71
2023/08/28 01:56:57;;;;;;;13.80;12.40;;;;;;;;;;5073682;28;20058;-71
2023/08/28 01:59:23;;;;;;;14.57;12.35;;;;;;;;;;5073242;28;20482;-72
2023/08/28 02:01:49;;;;;;;13.48;12.18;;;;;;;;;;5071213;28;20075;-71
2023/08/28 02:04:19;;;;;;;14.10;12.73;;;;;;;;;;5072477;28;20032;-71
2023/08/28 02:06:45;;;;;;;14.50;13.25;;;;;;;;;;5073410;28;20557;-71
2023/08/28 02:09:11;;;;;;;15.45;13.95;;;;;;;;;;5072149;28;20107;-71
2023/08/28 02:11:40;;;;;;;15.57;13.93;;;;;;;;;;5073971;28;20470;-70
2023/08/28 02:14:12;;;;;;;16.63;15.02;;;;;;;;;;5072031;28;20060;-70
2023/08/28 02:16:38;;;;;;;17.00;14.73;;;;;;;;;;5073602;28;20021;-72
2023/08/28 02:19:04;;;;;;;18.48;16.58;;;;;;;;;;5071652;28;20052;-70
2023/08/28 02:21:30;;;;;;;17.80;16.00;;;;;;;;;;5074083;28;20047;-71
2023/08/28 02:23:59;;;;;;;17.50;15.73;;;;;;;;;;5068656;28;20032;-71
2023/08/28 02:26:25;;;;;;;17.35;15.65;;;;;;;;;;5074018;28;20427;-71
2023/08/28 02:28:54;;;;;;;15.80;14.35;;;;;;;;;;5071421;28;20055;-71
2023/08/28 02:31:20;;;;;;;15.90;14.30;;;;;;;;;;5073778;28;20063;-72
2023/08/28 02:33:46;;;;;;;16.05;14.30;;;;;;;;;;5072119;28;20052;-73
2023/08/28 02:36:13;;;;;;;16.00;14.48;;;;;;;;;;5073579;28;20035;-72
2023/08/28 02:38:39;;;;;;;15.70;13.52;;;;;;;;;;5069996;28;20020;-72
2023/08/28 02:41:07;;;;;;;15.38;13.98;;;;;;;;;;5072973;28;20500;-73
2023/08/28 02:43:33;;;;;;;15.18;13.68;;;;;;;;;;5079388;28;20110;-73
2023/08/28 02:45:59;;;;;;;16.15;14.55;;;;;;;;;;5073348;28;20032;-73
2023/08/28 02:48:25;;;;;;;16.58;15.00;;;;;;;;;;5071775;28;20036;-73
2023/08/28 02:50:51;;;;;;;16.35;14.75;;;;;;;;;;5073092;28;20113;-74
2023/08/28 02:53:17;;;;;;;17.38;15.77;;;;;;;;;;5072969;28;20082;-73
2023/08/28 02:55:43;;;;;;;18.10;15.57;;;;;;;;;;5072549;28;20091;-74
2023/08/28 02:58:10;;;;;;;17.85;16.05;;;;;;;;;;5072528;28;20070;-74
2023/08/28 03:00:43;;;;;;;18.70;16.40;;;;;;;;;;5071091;28;20036;-74
2023/08/28 03:03:09;;;;;;;19.23;16.67;;;;;;;;;;5073237;28;20095;-74
2023/08/28 03:05:35;;;;;;;17.95;16.08;;;;;;;;;;5072161;28;20107;-74
2023/08/28 03:08:01;;;;;;;19.38;17.13;;;;;;;;;;5070754;28;20044;-75
2023/08/28 03:10:27;;;;;;;17.13;15.32;;;;;;;;;;5072109;28;20085;-73
2023/08/28 03:12:53;;;;;;;20.23;17.70;;;;;;;;;;5070931;28;20024;-74
2023/08/28 03:15:19;;;;;;;18.42;16.52;;;;;;;;;;5073228;28;20096;-73
2023/08/28 03:17:44;;;;;;;18.60;16.65;;;;;;;;;;5071439;28;20025;-73
2023/08/28 03:20:11;;;;;;;18.00;16.20;;;;;;;;;;5073047;28;20068;-73
2023/08/28 03:22:37;;;;;;;18.77;17.05;;;;;;;;;;5062285;28;20029;-74
2023/08/28 03:25:04;;;;;;;18.00;16.20;;;;;;;;;;5072179;28;20021;-73
2023/08/28 03:27:32;;;;;;;19.42;17.45;;;;;;;;;;5071096;28;20047;-74
2023/08/28 03:29:58;;;;;;;17.50;15.82;;;;;;;;;;5072362;28;20047;-74
2023/08/28 03:32:24;;;;;;;17.88;15.85;;;;;;;;;;5070982;28;20409;-74
2023/08/28 03:34:50;;;;;;;18.92;16.92;;;;;;;;;;5071213;28;20025;-74
2023/08/28 03:37:16;;;;;;;17.98;16.25;;;;;;;;;;5071775;28;20017;-73
2023/08/28 03:39:42;;;;;;;19.13;17.20;;;;;;;;;;5072760;28;20486;-73
2023/08/28 03:42:08;;;;;;;19.35;17.33;;;;;;;;;;5069961;28;20086;-73
2023/08/28 03:44:34;;;;;;;18.92;17.10;;;;;;;;;;5072663;28;20036;-72
2023/08/28 03:47:00;;;;;;;18.38;16.42;;;;;;;;;;5072309;28;20052;-72
2023/08/28 03:49:26;;;;;;;20.63;18.55;;;;;;;;;;5071270;28;20081;-72
2023/08/28 03:51:54;;;;;;;21.80;18.35;;;;;;;;;;5072179;28;20031;-73
2023/08/28 03:54:20;;;;;;;20.77;18.45;;;;;;;;;;5088458;28;20252;-73
2023/08/28 03:56:46;;;;;;;20.48;18.48;;;;;;;;;;5076217;28;20017;-74
2023/08/28 03:59:12;;;;;;;20.38;18.27;;;;;;;;;;5075886;28;20033;-74
2023/08/28 04:01:38;;;;;;;21.38;19.23;;;;;;;;;;5075954;28;20032;-73
2023/08/28 04:04:05;;;;;;;21.38;19.23;;;;;;;;;;5076717;28;20192;-74
2023/08/28 04:06:31;;;;;;;22.13;20.00;;;;;;;;;;5088679;28;20051;-74
2023/08/28 04:08:57;;;;;;;20.98;18.77;;;;;;;;;;5074314;28;20500;-74
2023/08/28 04:11:23;;;;;;;21.30;19.20;;;;;;;;;;5075448;28;20043;-73
2023/08/28 04:13:49;;;;;;;21.95;19.75;;;;;;;;;;5076570;28;20107;-74
2023/08/28 04:16:17;;;;;;;19.63;17.73;;;;;;;;;;5075471;28;20028;-74
2023/08/28 04:18:43;;;;;;;22.00;19.50;;;;;;;;;;5066627;28;20431;-73
2023/08/28 04:21:09;;;;;;;21.20;19.20;;;;;;;;;;5076211;28;20098;-73
2023/08/28 04:23:35;;;;;;;22.35;20.17;;;;;;;;;;5075328;28;20052;-74
2023/08/28 04:26:01;;;;;;;21.10;18.13;;;;;;;;;;5076273;28;20496;-73
2023/08/28 04:28:29;;;;;;;19.50;17.60;;;;;;;;;;5073557;28;20017;-73
2023/08/28 04:30:55;;;;;;;22.55;19.27;;;;;;;;;;5073797;28;20016;-73
2023/08/28 04:33:23;;;;;;;20.08;18.00;;;;;;;;;;5069662;28;20091;-73
2023/08/28 04:35:49;;;;;;;19.33;17.40;;;;;;;;;;5070845;28;20025;-73
2023/08/28 04:38:15;;;;;;;20.40;18.42;;;;;;;;;;5068286;28;20370;-74
2023/08/28 04:40:42;;;;;;;20.10;18.00;;;;;;;;;;5073819;28;20478;-73
2023/08/28 04:43:08;;;;;;;21.25;17.90;;;;;;;;;;5072486;28;20024;-74
2023/08/28 04:45:34;;;;;;;19.77;17.67;;;;;;;;;;5071743;28;20082;-73
2023/08/28 04:48:00;;;;;;;18.95;17.13;;;;;;;;;;5073448;28;20029;-72
2023/08/28 04:50:26;;;;;;;18.70;16.98;;;;;;;;;;5075040;28;20440;-72
2023/08/28 04:52:52;;;;;;;20.15;18.20;;;;;;;;;;5076156;28;20046;-71
2023/08/28 04:55:18;;;;;;;17.10;15.43;;;;;;;;;;5073900;28;20109;-72
2023/08/28 04:57:44;;;;;;;18.20;16.35;;;;;;;;;;5073317;28;20025;-73
2023/08/28 05:00:10;;;;;;;16.90;15.23;;;;;;;;;;5093638;28;20412;-72
2023/08/28 05:02:36;;;;;;;16.90;15.32;;;;;;;;;;5074812;28;20020;-72
2023/08/28 05:05:03;;;;;;;16.80;15.30;;;;;;;;;;5074997;28;20024;-72
2023/08/28 05:07:29;;;;;;;18.33;15.88;;;;;;;;;;5074031;28;20036;-72
2023/08/28 05:09:54;;;;;;;17.42;15.70;;;;;;;;;;5074863;28;20095;-71
2023/08/28 05:12:20;;;;;;;15.73;14.15;;;;;;;;;;5074802;28;20060;-71
2023/08/28 05:14:46;;;;;;;15.32;13.55;;;;;;;;;;5074972;28;20024;-72
2023/08/28 05:17:12;;;;;;;16.52;14.75;;;;;;;;;;5073763;28;20490;-70
2023/08/28 05:19:38;;;;;;;15.75;14.23;;;;;;;;;;5075325;28;20077;-71
2023/08/28 05:22:04;;;;;;;17.52;14.90;;;;;;;;;;5074285;28;20032;-70
2023/08/28 05:24:30;;;;;;;15.40;13.75;;;;;;;;;;5075251;28;20020;-69
2023/08/28 05:26:56;;;;;;;14.70;13.30;;;;;;;;;;5074151;28;20020;-70
2023/08/28 05:29:22;;;;;;;15.48;13.93;;;;;;;;;;5073063;28;20081;-70
2023/08/28 05:31:48;;;;;;;17.38;14.60;;;;;;;;;;5075019;28;20033;-69
2023/08/28 05:34:15;;;;;;;15.07;13.48;;;;;;;;;;5074178;28;20025;-69
2023/08/28 05:36:41;;;;;;;15.20;13.38;;;;;;;;;;5074911;28;20036;-70
2023/08/28 05:39:07;;;;;;;14.80;13.30;;;;;;;;;;5073846;28;20024;-71
2023/08/28 05:41:33;;;;;;;15.43;13.20;;;;;;;;;;5073063;28;20043;-70
2023/08/28 05:44:00;;;;;;;15.93;14.25;;;;;;;;;;5073870;28;20025;-71
2023/08/28 05:46:26;;;;;;;16.08;14.38;;;;;;;;;;5074847;28;20020;-71
2023/08/28 05:48:52;;;;;;;15.27;13.77;;;;;;;;;;5073470;28;20036;-70
2023/08/28 05:51:18;;;;;;;15.35;13.90;;;;;;;;;;5073999;28;20028;-71
2023/08/28 05:53:43;;;;;;;14.02;12.73;;;;;;;;;;5082126;28;20104;-71
2023/08/28 05:56:09;;;;;;;15.23;13.73;;;;;;;;;;5079650;28;20040;-71
2023/08/28 05:58:35;;;;;;;16.08;14.45;;;;;;;;;;5074436;28;20327;-70
2023/08/28 06:01:01;;;;;;;16.77;14.90;;;;;;;;;;5074204;28;20033;-70
2023/08/28 06:03:28;;;;;;;15.35;13.90;;;;;;;;;;5073549;28;20028;-70
2023/08/28 06:05:55;;;;;;;16.52;14.82;;;;;;;;;;5072531;28;20021;-70
2023/08/28 06:08:21;;;;;;;15.30;13.73;;;;;;;;;;5073946;28;20028;-70
2023/08/28 06:10:47;;;;;;;15.90;14.07;;;;;;;;;;5072282;28;20029;-71
2023/08/28 06:13:13;;;;;;;15.38;13.88;;;;;;;;;;5073956;28;20478;-70
2023/08/28 06:15:39;;;;;;;15.40;13.48;;;;;;;;;;5072396;28;20374;-70
2023/08/28 06:18:05;;;;;;;15.07;13.50;;;;;;;;;;5073128;28;20032;-70
2023/08/28 06:20:32;;;;;;;15.38;13.80;;;;;;;;;;5073667;28;20490;-70
2023/08/28 06:22:58;;;;;;;13.60;12.20;;;;;;;;;;5071951;28;20470;-71
2023/08/28 06:25:24;;;;;;;15.35;13.82;;;;;;;;;;5073670;28;20023;-71
2023/08/28 06:27:50;;;;;;;14.98;13.32;;;;;;;;;;5070910;28;20474;-70
2023/08/28 06:30:16;;;;;;;15.45;13.48;;;;;;;;;;5073914;28;20029;-70
2023/08/28 06:32:42;;;;;;;15.25;13.77;;;;;;;;;;5084876;28;20024;-71
2023/08/28 06:35:08;;;;;;;14.85;13.43;;;;;;;;;;5073414;28;20035;-70
2023/08/28 06:37:34;;;;;;;14.40;13.02;;;;;;;;;;5072915;28;20060;-70
2023/08/28 06:40:02;;;;;;;14.63;13.13;;;;;;;;;;5073427;28;20028;-70
2023/08/28 06:42:28;;;;;;;16.33;12.57;;;;;;;;;;5073011;28;20043;-71
2023/08/28 06:44:54;;;;;;;20.13;13.40;;;;;;;;;;5073006;28;20016;-70
2023/08/28 06:47:20;;;;;;;13.50;12.10;;;;;;;;;;5073536;28;20062;-70
2023/08/28 06:49:46;;;;;;;14.75;13.18;;;;;;;;;;5070219;28;20028;-70
2023/08/28 06:52:13;;;;;;;14.05;12.60;;;;;;;;;;5070842;28;20055;-70
2023/08/28 06:54:39;;;;;;;14.82;13.38;;;;;;;;;;5086134;28;20127;-70
2023/08/28 06:57:05;;;;;;;15.10;13.50;;;;;;;;;;5073486;28;20112;-70
2023/08/28 06:59:31;;;;;;;15.70;13.98;;;;;;;;;;5072385;28;20029;-70
2023/08/28 07:01:57;;;;;;;15.25;13.77;;;;;;;;;;5070550;28;20047;-70
2023/08/28 07:04:23;;;;;;;15.85;14.02;;;;;;;;;;5073492;28;20536;-70
2023/08/28 07:06:49;;;;;;;15.63;14.07;;;;;;;;;;5072254;28;20033;-70
2023/08/28 07:09:15;;;;;;;15.45;14.05;;;;;;;;;;5072242;28;20414;-70
2023/08/28 07:11:43;;;;;;;14.75;13.30;;;;;;;;;;5070813;28;20032;-70
2023/08/28 07:14:09;;;;;;;15.70;14.10;;;;;;;;;;5071676;28;20116;-69
2023/08/28 07:16:35;;;;;;;15.43;13.80;;;;;;;;;;5058015;28;20076;-70
2023/08/28 07:19:01;;;;;;;15.45;13.30;;;;;;;;;;5072433;28;20025;-69
2023/08/28 07:21:27;;;;;;;15.70;14.20;;;;;;;;;;5071315;28;20028;-70
2023/08/28 07:23:53;;;;;;;16.75;15.05;;;;;;;;;;5071913;28;20025;-70
2023/08/28 07:26:19;;;;;;;15.00;13.50;;;;;;;;;;5072798;28;20032;-70
2023/08/28 07:28:48;;;;;;;15.45;13.45;;;;;;;;;;5071910;28;20032;-71
2023/08/28 07:31:14;;;;;;;18.10;12.82;;;;;;;;;;5072870;28;20028;-71
2023/08/28 07:33:40;;;;;;;13.43;12.18;;;;;;;;;;5071213;28;20033;-71
2023/08/28 07:36:06;;;;;;;13.77;12.48;;;;;;;;;;5072741;28;20027;-70
2023/08/28 07:38:32;;;;;;;13.07;11.45;;;;;;;;;;5072106;28;20119;-71
2023/08/28 07:40:58;;;;;;;13.88;12.07;;;;;;;;;;5072600;28;20541;-70
2023/08/28 07:43:24;;;;;;;12.50;11.23;;;;;;;;;;5072697;28;20027;-71
2023/08/28 07:45:50;;;;;;;12.70;11.40;;;;;;;;;;5071864;28;20031;-70
2023/08/28 07:48:16;;;;;;;12.60;10.18;;;;;;;;;;5071617;28;20082;-71
2023/08/28 07:50:45;;;;;;;15.13;11.15;;;;;;;;;;5078651;28;20094;-71
2023/08/28 07:53:11;;;;;;;11.30;10.27;;;;;;;;;;5071810;28;20021;-71
2023/08/28 07:55:37;;;;;;;13.23;10.88;;;;;;;;;;5071536;28;20056;-71
2023/08/28 07:58:04;;;;;;;10.75;9.48;;;;;;;;;;5071854;28;20020;-71
2023/08/28 08:00:34;;;;;;;11.02;9.88;;;;;;;;;;5072750;28;20167;-71
2023/08/28 08:03:03;;;;;;;12.63;10.65;;;;;;;;;;5071814;28;20103;-71
2023/08/28 08:05:30;;;;;;;12.40;11.10;;;;;;;;;;5072691;28;20051;-71
2023/08/28 08:07:56;;;;;;;12.25;10.98;;;;;;;;;;5070873;28;20036;-72
2023/08/28 08:10:22;;;;;;;12.80;10.40;;;;;;;;;;5072272;28;20063;-71
2023/08/28 08:12:48;;;;;;;13.05;10.63;;;;;;;;;;5071815;28;20025;-72
2023/08/28 08:15:14;;;;;;;13.45;10.23;;;;;;;;;;5072179;28;20033;-71
2023/08/28 08:17:40;;;;;;;12.00;10.75;;;;;;;;;;5072180;28;20025;-72
2023/08/28 08:20:10;;;;;;;13.00;11.38;;;;;;;;;;5073186;28;20052;-72
2023/08/28 08:22:37;;;;;;;12.68;11.45;;;;;;;;;;5072374;28;20048;-71
2023/08/28 08:25:04;;;;;;;4.80;3.40;;;;;;;;;;5072969;28;20486;-72
2023/08/28 08:27:30;;;;;;;5.40;2.60;;;;;;;;;;5070390;28;20066;-72
2023/08/28 08:29:56;;;;;;;3.08;1.90;;;;;;;;;;5072655;28;20036;-72
2023/08/28 08:32:22;;;;;;;2.72;1.67;;;;;;;;;;5070924;28;20033;-72
2023/08/28 08:34:48;;;;;;;2.35;1.20;;;;;;;;;;5072348;28;20027;-72
2023/08/28 08:37:15;;;;;;;1.65;1.42;;;;;;;;;;5071707;28;20059;-73
2023/08/28 08:39:42;;;;;;;2.45;1.20;;;;;;;;;;5106760;28;20093;-72
2023/08/28 08:42:08;;;;;;;1.38;1.10;;;;;;;;;;5076034;28;20039;-72
2023/08/28 08:44:34;;;;;;;10.13;3.13;;;;;;;;;;5074157;28;20048;-73
2023/08/28 08:47:03;;;;;;;4.43;1.60;;;;;;;;;;5073966;28;20107;-73
2023/08/28 08:49:32;;;;;;;1.75;1.13;;;;;;;;;;5075605;28;20055;-74
2023/08/28 08:52:03;;;;;;;3.10;1.27;;;;;;;;;;5073377;28;20374;-74
2023/08/28 08:54:36;;;;;;;3.88;2.40;;;;;;;;;;5075373;28;20040;-74
2023/08/28 08:57:04;;;;;;;3.00;1.40;;;;;;;;;;5060949;28;20024;-74
2023/08/28 14:26:16;;;;;;;0.28;0.20;;;;;;;;;;5042756;28;20124;-68
2023/08/28 14:28:42;;;;;;;1.13;0.30;;;;;;;;;;5110175;27;20063;-68
2023/08/28 14:31:08;;;;;;;1.08;0.10;;;;;;;;;;5072111;28;20494;-68
2023/08/28 14:33:36;;;;;;;0.60;0.30;;;;;;;;;;5087581;28;20035;-68
2023/08/28 14:36:02;;;;;;;0.32;0.32;;;;;;;;;;5069562;28;20116;-68
2023/08/28 14:38:29;;;;;;;0.40;0.20;;;;;;;;;;5071812;28;20565;-68
2023/08/28 14:40:55;;;;;;;0.70;0.30;;;;;;;;;;5072109;28;20466;-68
2023/08/28 14:43:21;;;;;;;1.33;0.25;;;;;;;;;;5073547;28;20074;-68
2023/08/28 14:45:47;;;;;;;0.70;0.70;;;;;;;;;;5072029;28;20032;-68
2023/08/28 14:48:13;;;;;;;2.20;1.08;;;;;;;;;;5071928;28;20020;-68
2023/08/28 14:50:39;;;;;;;1.05;0.93;;;;;;;;;;5073318;28;20035;-68
2023/08/28 14:53:05;;;;;;;2.50;0.52;;;;;;;;;;5075168;28;20016;-68
2023/08/28 14:55:31;;;;;;;1.15;0.65;;;;;;;;;;5085070;28;20043;-68
2023/08/28 14:57:57;;;;;;;2.28;0.30;;;;;;;;;;5072486;28;20025;-68
2023/08/28 15:00:24;;;;;;;2.30;0.28;;;;;;;;;;5071581;28;20024;-67
2023/08/28 15:02:50;;;;;;;0.93;0.40;;;;;;;;;;5072576;28;20032;-67
2023/08/28 15:05:16;;;;;;;3.08;0.38;;;;;;;;;;5071621;28;20104;-67
2023/08/28 15:07:42;;;;;;;1.52;0.85;;;;;;;;;;5073101;28;20497;-67
2023/08/28 15:10:09;;;;;;;6.30;1.20;;;;;;;;;;5070919;28;20048;-67
2023/08/28 15:12:35;;;;;;;3.80;0.70;;;;;;;;;;5071604;28;20055;-67
2023/08/28 15:15:01;;;;;;;3.00;1.38;;;;;;;;;;5073204;28;20025;-68
2023/08/28 15:17:27;;;;;;;2.20;0.40;;;;;;;;;;5071691;28;20025;-67
2023/08/28 15:19:53;;;;;;;1.08;0.30;;;;;;;;;;5069443;28;20107;-67
2023/08/28 15:22:19;;;;;;;0.68;0.50;;;;;;;;;;5072799;28;20115;-68
2023/08/28 15:24:45;;;;;;;0.73;0.30;;;;;;;;;;5070764;28;20134;-68
2023/08/28 15:27:11;;;;;;;1.10;0.20;;;;;;;;;;5070993;28;20072;-67
2023/08/28 15:29:37;;;;;;;0.52;0.20;;;;;;;;;;5073280;28;20017;-67
2023/08/28 15:32:03;;;;;;;0.35;0.20;;;;;;;;;;5070748;28;20082;-68
2023/08/28 15:34:30;;;;;;;0.95;0.70;;;;;;;;;;5072945;28;20020;-68
2023/08/28 15:36:56;;;;;;;1.08;0.47;;;;;;;;;;5071262;28;20063;-68
2023/08/28 15:39:22;;;;;;;0.30;0.30;;;;;;;;;;5070943;28;20769;-68
2023/08/28 15:41:48;;;;;;;0.75;0.30;;;;;;;;;;5072703;28;20037;-68
2023/08/28 15:44:14;;;;;;;2.05;1.20;;;;;;;;;;5071797;28;20012;-67
2023/08/28 15:46:40;;;;;;;0.80;0.50;;;;;;;;;;5072713;28;20036;-67
2023/08/28 15:49:06;;;;;;;0.63;0.40;;;;;;;;;;5073813;28;20024;-67
2023/08/28 15:51:32;;;;;;;0.28;0.20;;;;;;;;;;5076809;28;20153;-67
2023/08/28 15:53:58;;;;;;;0.22;0.17;;;;;;;;;;5084691;28;20016;-67
2023/08/28 15:56:24;;;;;;;0.30;0.20;;;;;;;;;;5080896;28;20124;-67
2023/08/28 15:58:52;;;;;;;0.68;0.40;;;;;;;;;;5074899;28;20025;-67
2023/08/28 16:01:18;;;;;;;0.88;0.30;;;;;;;;;;5076598;28;20043;-67
2023/08/28 16:03:47;;;;;;;0.75;0.28;;;;;;;;;;5074872;28;20016;-67
2023/08/28 16:06:14;;;;;;;1.60;0.50;;;;;;;;;;5075144;28;20094;-67
2023/08/28 16:08:40;;;;;;;1.95;0.90;;;;;;;;;;5072354;28;20024;-67
2023/08/28 16:11:06;;;;;;;0.75;0.50;;;;;;;;;;5067101;28;20025;-67
2023/08/28 16:13:32;;;;;;;1.35;0.30;;;;;;;;;;5075890;28;20055;-67
2023/08/28 16:15:58;;;;;;;0.85;0.57;;;;;;;;;;5076297;28;20020;-67
2023/08/28 16:18:24;;;;;;;2.17;0.45;;;;;;;;;;5074137;28;20033;-67
2023/08/28 16:20:50;;;;;;;0.30;0.30;;;;;;;;;;5076101;28;20025;-67
2023/08/28 16:23:16;;;;;;;1.40;0.43;;;;;;;;;;5075254;28;20040;-67
2023/08/28 16:25:43;;;;;;;0.75;0.43;;;;;;;;;;5075984;28;20499;-67
2023/08/28 16:28:09;;;;;;;0.73;0.45;;;;;;;;;;5071287;28;20101;-67
2023/08/28 16:30:35;;;;;;;1.15;0.38;;;;;;;;;;5075750;28;20025;-67
2023/08/28 16:33:02;;;;;;;0.88;0.22;;;;;;;;;;5074595;28;20633;-67
2023/08/28 16:35:29;;;;;;;0.80;0.32;;;;;;;;;;5077044;28;20115;-67
2023/08/28 16:37:55;;;;;;;0.77;0.40;;;;;;;;;;5079944;28;20107;-67
2023/08/28 16:40:21;;;;;;;0.57;0.43;;;;;;;;;;5074968;28;20543;-67
2023/08/28 16:42:47;;;;;;;1.75;0.43;;;;;;;;;;5075672;28;20028;-67
2023/08/28 16:45:13;;;;;;;0.47;0.30;;;;;;;;;;5075248;28;20474;-67
2023/08/28 16:47:39;;;;;;;0.57;0.38;;;;;;;;;;5074983;28;20036;-66
2023/08/28 16:50:06;;;;;;;1.02;0.40;;;;;;;;;;5075846;28;20023;-67
2023/08/28 16:52:31;;;;;;;1.63;0.40;;;;;;;;;;5073834;28;20516;-66
2023/08/28 16:54:57;;;;;;;1.50;0.30;;;;;;;;;;5073736;28;20025;-66
2023/08/28 16:57:24;;;;;;;0.55;0.40;;;;;;;;;;5075822;28;20021;-66
2023/08/28 16:59:50;;;;;;;2.40;0.52;;;;;;;;;;5064451;28;20039;-66
2023/08/28 17:02:15;;;;;;;2.53;1.17;;;;;;;;;;5074129;28;20064;-66
2023/08/28 17:04:42;;;;;;;1.23;0.82;;;;;;;;;;5074800;28;20489;-66
2023/08/28 17:07:09;;;;;;;1.45;0.60;;;;;;;;;;5074339;28;20080;-66
2023/08/28 17:09:35;;;;;;;1.48;0.80;;;;;;;;;;5075116;28;20470;-66
2023/08/28 17:12:01;;;;;;;1.33;0.55;;;;;;;;;;5074460;28;20075;-66
2023/08/28 17:14:27;;;;;;;1.58;0.50;;;;;;;;;;5074602;28;20024;-64
2023/08/28 17:16:55;;;;;;;1.73;0.70;;;;;;;;;;5073888;28;20024;-64
2023/08/28 17:19:21;;;;;;;0.90;0.90;;;;;;;;;;5073831;28;20261;-62
2023/08/28 17:21:47;;;;;;;1.55;0.60;;;;;;;;;;5069927;28;20036;-62
2023/08/28 17:24:16;;;;;;;1.42;0.82;;;;;;;;;;5068035;28;20032;-63
2023/08/28 17:26:42;;;;;;;1.33;0.80;;;;;;;;;;5069179;28;20045;-62
2023/08/28 17:29:08;;;;;;;1.05;0.52;;;;;;;;;;5074700;28;20024;-63
2023/08/28 17:31:34;;;;;;;1.17;0.50;;;;;;;;;;5071562;28;20391;-62
2023/08/28 17:34:00;;;;;;;1.92;0.50;;;;;;;;;;5070828;28;20029;-51
2023/08/28 17:36:26;;;;;;;2.80;0.50;;;;;;;;;;5067100;28;20359;-49
2023/08/28 17:38:55;;;;;;;1.27;0.40;;;;;;;;;;5069753;28;20028;-64
2023/08/28 17:41:21;;;;;;;0.68;0.60;;;;;;;;;;5072384;28;20058;-61
2023/08/28 17:43:47;;;;;;;0.88;0.80;;;;;;;;;;5069540;28;20025;-63
2023/08/28 17:46:13;;;;;;;1.23;0.70;;;;;;;;;;5071026;28;20085;-63
2023/08/28 17:48:39;;;;;;;1.70;1.10;;;;;;;;;;5070570;28;20470;-70
2023/08/28 17:51:08;;;;;;;3.50;1.10;;;;;;;;;;5071175;28;20055;-62
2023/08/28 17:53:34;;;;;;;3.28;1.60;;;;;;;;;;5074053;28;20028;-63
2023/08/28 17:56:00;;;;;;;2.33;1.55;;;;;;;;;;5073211;28;20381;-67
2023/08/28 17:58:26;;;;;;;1.48;0.75;;;;;;;;;;5071939;28;20066;-64
2023/08/28 18:00:52;;;;;;;1.38;1.20;;;;;;;;;;5072573;28;20113;-64
2023/08/28 18:03:18;;;;;;;0.95;0.95;;;;;;;;;;5072529;28;20035;-64
2023/08/28 18:05:49;;;;;;;0.57;0.30;;;;;;;;;;5070696;28;20454;-64
2023/08/28 18:08:16;;;;;;;1.55;0.40;;;;;;;;;;5071335;28;20067;-59
2023/08/28 18:10:42;;;;;;;0.88;0.40;;;;;;;;;;5073009;28;20123;-62
2023/08/28 18:13:08;;;;;;;0.40;0.20;;;;;;;;;;5073240;28;20339;-67
2023/08/28 18:15:37;;;;;;;0.43;0.30;;;;;;;;;;5068287;28;20105;-67
2023/08/28 18:18:04;;;;;;;0.38;0.30;;;;;;;;;;5071651;28;20404;-67
2023/08/28 18:20:30;;;;;;;1.55;0.38;;;;;;;;;;5072113;28;20035;-67
2023/08/28 18:22:56;;;;;;;2.50;1.63;;;;;;;;;;5067985;28;20438;-67
2023/08/28 18:25:24;;;;;;;2.67;0.50;;;;;;;;;;5068340;28;20029;-73
2023/08/28 18:27:51;;;;;;;2.03;0.70;;;;;;;;;;5067273;28;20948;-73
2023/08/28 18:30:17;;;;;;;2.08;0.55;;;;;;;;;;5070226;28;20050;-70
2023/08/28 18:32:43;;;;;;;1.10;0.38;;;;;;;;;;5072363;28;20028;-69
2023/08/28 18:35:09;;;;;;;3.08;0.20;;;;;;;;;;5070032;28;20031;-68
2023/08/28 18:37:35;;;;;;;1.38;0.50;;;;;;;;;;5070317;28;20036;-69
2023/08/28 18:40:02;;;;;;;1.42;0.80;;;;;;;;;;5071813;28;20017;-70
2023/08/28 18:42:28;;;;;;;1.65;0.43;;;;;;;;;;5086157;28;20389;-70
2023/08/28 18:44:53;;;;;;;1.00;0.50;;;;;;;;;;5072835;28;20017;-70
2023/08/28 18:47:19;;;;;;;1.35;0.45;;;;;;;;;;5071964;28;20024;-70
2023/08/28 18:49:45;;;;;;;1.90;0.28;;;;;;;;;;5072021;28;20095;-70
2023/08/28 18:52:11;;;;;;;2.25;2.05;;;;;;;;;;5070310;28;20078;-70
2023/08/28 18:54:37;;;;;;;3.75;2.20;;;;;;;;;;5068332;28;20183;-69
2023/08/28 18:57:05;;;;;;;2.05;0.80;;;;;;;;;;5072671;28;20484;-70
2023/08/28 18:59:31;;;;;;;0.75;0.50;;;;;;;;;;5103507;27;20025;-71
2023/08/28 19:01:58;;;;;;;1.45;0.35;;;;;;;;;;5074494;28;20035;-70
2023/08/28 19:04:24;;;;;;;0.88;0.35;;;;;;;;;;5070329;28;20025;-70
2023/08/28 19:06:50;;;;;;;1.08;0.50;;;;;;;;;;5068286;28;20397;-70
2023/08/28 19:09:16;;;;;;;0.60;0.60;;;;;;;;;;5070147;28;20409;-70
2023/08/28 19:11:42;;;;;;;2.58;0.55;;;;;;;;;;5070333;28;20024;-73
2023/08/28 19:14:08;;;;;;;1.85;0.60;;;;;;;;;;5068410;28;20041;-73
2023/08/28 19:16:35;;;;;;;2.05;0.60;;;;;;;;;;5071299;28;20512;-73
2023/08/28 19:19:02;;;;;;;1.13;0.63;;;;;;;;;;5071035;28;20428;-75
2023/08/28 19:21:28;;;;;;;1.10;0.60;;;;;;;;;;5070615;28;20028;-74
2023/08/28 19:23:55;;;;;;;1.63;0.50;;;;;;;;;;5093645;28;20029;-75
2023/08/28 19:26:22;;;;;;;0.85;0.30;;;;;;;;;;5067266;28;20028;-74
2023/08/28 19:28:48;;;;;;;0.88;0.82;;;;;;;;;;5072056;28;20032;-74
2023/08/28 19:31:14;;;;;;;2.75;1.30;;;;;;;;;;5069530;28;20033;-71
2023/08/28 19:33:41;;;;;;;0.52;0.52;;;;;;;;;;5072302;28;20048;-71
2023/08/28 19:36:07;;;;;;;0.50;0.47;;;;;;;;;;5065233;28;20474;-72
2023/08/28 19:38:33;;;;;;;2.13;0.90;;;;;;;;;;5068900;28;20079;-73
2023/08/28 19:40:59;;;;;;;2.47;0.60;;;;;;;;;;5071620;28;20039;-75
2023/08/28 19:43:25;;;;;;;2.65;0.73;;;;;;;;;;5067962;28;20068;-75
2023/08/28 19:45:51;;;;;;;1.15;0.90;;;;;;;;;;5070932;28;20056;-75
2023/08/28 19:48:17;;;;;;;0.90;0.50;;;;;;;;;;5070727;28;20055;-74
2023/08/28 19:50:43;;;;;;;1.27;0.47;;;;;;;;;;5072427;28;20527;-75